РУС

ENG

 
  Pireps - S7
 

Рейс CTU1218

  • Выполнял: Sergey Radchenko
  • Аэропорт отправления: (UWLL)
  • Аэропорт назначения: Pulkovo Airport (ULLI)
  • Тип ВС: B737-800 (VQ-BVL--)
  • Время полёта: 02.17
  • Дата полёта: 01.07.2022
  • Маршрут: FLP
  • Статус: Одобрен

Детали полёта
Gross Revenue:
(143 load / $ 320.00 per unit
$ 45, 760.00
Fuel Cost:
(7623 fuel used @ 5.1 / unit)
$ 38, 877.30


Дополнительная информация о полёте:

Лог

Aircraft Used in flight is PMDG 737-700 S7 Airlines One World (VQ-BKW | 202
16:59 Boarding
16:59 Brakes are On
17:01 Navigation Lights ON at 410 AGL
17:14 Beacon Lights ON at 410 AGL
17:15 Engine 2 Started
17:16 Engine 1 Started
17:16 Taxi Lights ON at 410 AGL
17:17Flaps 1 Selected at 410ft and 1kts
17:17Flaps 2 Selected at 410ft and 1kts
17:17Flaps 3 Selected at 410ft and 1kts
17:17 Brakes are Released
17:21 Landing Lights ON at 440 AGL
17:21 Strobe Lights ON at 440 AGL
17:23 You Took off @ 139 Knots and Flaps at Position 3
Departure Weather
UWLL 011400Z 03009MPS 9999 SCT030CB 16/11 Q1011 R02/120060 NOSIG RMK QFE746/0995
17:23 Paused
17:23 Unpaused
17:23 Landing Gear Up @ 159 Knots and 540 Feet
17:23Flaps 2 Selected at 1620ft and 188kts
17:23Flaps 1 Selected at 2010ft and 187kts
17:24Flaps Retracted at 5070ft and 194kts
17:24 Landing Lights OFF at 5220 AGL
17:24 Taxi Lights OFF at 5240 AGL
19:01 Landing Lights ON at 6500 AGL
19:01 Taxi Lights ON at 6480 AGL
19:04Flaps 1 Selected at 5270ft and 223kts
19:06 You exceeded maximum bank angle
19:06Flaps 2 Selected at 5270ft and 178kts
19:07Flaps 3 Selected at 5260ft and 172kts
19:08Flaps 4 Selected at 5260ft and 166kts
19:08 Landing Gear Down @ 165 Knots and 5250 Feet
19:08Flaps 5 Selected at 5250ft and 158kts
19:09Flaps 6 Selected at 5250ft and 148kts
19:09Flaps 7 Selected at 5240ft and 148kts
19:09Flaps 8 Selected at 5230ft and 147kts
19:17 You Landed @ 109 Knots and with -350 Vertical Speed
Arrival Weather
ULLI 011330Z 34004MPS 320V020 CAVOK 30/15 Q1020 R28L/090060 NOSIG
19:17 Paused
19:17 Unpaused
19:17 Brakes are On
Pirep logged with S7 Tracking 1.0.0.14



Общая оценка полета : 100%




Route Map



 
 
   
 
Новости

29.12.2021 - C Новым годом

Дорогие друзья, поздравляю вас с Наступающим Новым годом!
Желаем успехов, приятных взлетов и мягких посадок!

   
 
Авторизация






Регистрация

Восстановить пароль?

Мы в соц. сетях

      



   
 





   
 


   
 


Яндекс.Метрика

www.va-s7.ru 2011-2021
Все права защищены.



Минуточку внимания!
Сайт va-s7.ru не является коммерческим проектом. Мы не имеем отношения к торговым маркам "S7" и "Globus" и их представителям.
Эмблемы на сайте являются собственностью соответствующих компаний.

аэронавигационная метеорологическая и любая другая информация с данного ресурса ни в коем случае не должна использоваться для реальных полетов